Time;durP1;ratioP1;P1;durP2;ratioP2;P2;SDS_P1;SDS_P2;PMS_P1;PMS_P2;Temp;Humidity;BMP_temperature;BMP_pressure;BME280_temperature;BME280_humidity;BME280_pressure;Samples;Min_cycle;Max_cycle;Signal;HPM_P1;HPM_P2
2022/07/19 00:02:07;;;;;;;8.80;4.40;;;;;;;22.20;100.00;101835.84;4881049;29;20052;-63
2022/07/19 00:04:35;;;;;;;6.70;4.03;;;;;;;22.16;100.00;101834.59;4886151;29;20114;-63
2022/07/19 00:07:01;;;;;;;6.35;4.40;;;;;;;22.08;100.00;101833.72;4886650;29;20743;-63
2022/07/19 00:09:28;;;;;;;6.03;4.18;;;;;;;22.11;100.00;101830.69;4876199;29;20061;-63
2022/07/19 00:11:55;;;;;;;8.60;4.13;;;;;;;22.08;100.00;101823.03;4881316;29;20053;-63
2022/07/19 00:14:22;;;;;;;7.55;4.32;;;;;;;22.04;100.00;101826.31;4877714;29;20056;-62
2022/07/19 00:16:48;;;;;;;9.13;4.13;;;;;;;22.02;100.00;101818.50;4886616;29;20056;-64
2022/07/19 00:19:15;;;;;;;8.02;4.82;;;;;;;22.03;100.00;101820.16;4878126;29;20513;-63
2022/07/19 00:21:42;;;;;;;6.97;4.20;;;;;;;22.00;100.00;101825.06;4885727;29;20059;-61
2022/07/19 00:24:08;;;;;;;5.80;4.45;;;;;;;21.97;100.00;101823.59;4881375;29;20062;-64
2022/07/19 00:26:35;;;;;;;5.82;4.00;;;;;;;21.91;100.00;101821.72;4874160;29;20063;-63
2022/07/19 00:29:01;;;;;;;6.50;4.43;;;;;;;21.83;100.00;101811.22;4885855;29;20056;-63
2022/07/19 00:31:29;;;;;;;8.02;4.63;;;;;;;21.84;100.00;101812.88;4879885;29;20060;-63
2022/07/19 00:33:55;;;;;;;8.48;4.20;;;;;;;21.78;100.00;101805.63;4886750;29;20060;-63
2022/07/19 00:36:22;;;;;;;8.68;4.53;;;;;;;21.73;100.00;101809.72;4878172;29;20056;-63
2022/07/19 00:38:48;;;;;;;6.28;4.78;;;;;;;21.71;100.00;101803.75;4883026;29;20063;-62
2022/07/19 00:41:15;;;;;;;6.18;4.07;;;;;;;21.70;100.00;101806.63;4886705;29;20059;-62
2022/07/19 00:43:43;;;;;;;7.18;4.22;;;;;;;21.65;100.00;101807.19;4862192;29;20052;-63
2022/07/19 00:46:20;;;;;;;6.57;4.00;;;;;;;21.67;100.00;101810.50;4886478;29;20052;-63
2022/07/19 00:48:48;;;;;;;6.15;4.18;;;;;;;21.67;100.00;101807.00;4878535;29;20057;-63
2022/07/19 00:51:16;;;;;;;6.72;4.00;;;;;;;21.60;100.00;101814.13;4881545;29;20785;-63
2022/07/19 00:53:44;;;;;;;8.00;4.30;;;;;;;21.54;100.00;101815.75;4881802;29;20059;-63
2022/07/19 00:56:12;;;;;;;9.48;4.85;;;;;;;21.50;100.00;101812.66;4889009;29;20418;-62
2022/07/19 00:58:40;;;;;;;7.68;4.65;;;;;;;21.49;100.00;101815.53;4889379;29;20581;-62
2022/07/19 01:01:08;;;;;;;6.57;4.55;;;;;;;21.45;100.00;101815.09;4881476;29;20052;-64
2022/07/19 01:03:36;;;;;;;6.53;4.67;;;;;;;21.42;100.00;101814.59;4885298;29;20054;-63
2022/07/19 01:06:03;;;;;;;8.20;4.85;;;;;;;21.37;100.00;101817.06;4875776;29;20295;-63
2022/07/19 01:08:29;;;;;;;9.15;5.10;;;;;;;21.33;100.00;101817.44;4887166;29;20052;-63
2022/07/19 01:10:56;;;;;;;7.95;5.13;;;;;;;21.26;100.00;101813.88;4883477;29;20059;-63
2022/07/19 01:13:22;;;;;;;8.43;4.68;;;;;;;21.23;100.00;101811.59;4887335;29;20394;-63
2022/07/19 01:15:49;;;;;;;10.05;5.13;;;;;;;21.21;100.00;101812.78;4891221;29;20082;-63
2022/07/19 01:18:16;;;;;;;6.95;5.15;;;;;;;21.16;100.00;101816.06;4877139;29;20062;-63
2022/07/19 01:20:42;;;;;;;8.23;5.40;;;;;;;21.08;100.00;101816.19;4888455;29;20056;-62
2022/07/19 01:23:09;;;;;;;10.20;5.40;;;;;;;21.06;100.00;101818.22;4880722;29;20053;-63
2022/07/19 01:25:37;;;;;;;5.45;4.35;;;;;;;21.01;100.00;101813.47;4888969;29;20498;-63
2022/07/19 01:28:05;;;;;;;8.52;5.07;;;;;;;20.99;100.00;101828.00;4888377;29;20059;-63
2022/07/19 01:30:31;;;;;;;;;;;;;;;20.99;100.00;101817.31;4876638;29;20061;-64
2022/07/19 01:32:58;;;;;;;7.53;5.28;;;;;;;20.97;100.00;101822.03;4884509;29;20369;-63
2022/07/19 01:35:26;;;;;;;6.75;5.20;;;;;;;20.95;100.00;101822.22;4878062;29;20059;-63
2022/07/19 01:37:53;;;;;;;7.82;4.65;;;;;;;20.91;100.00;101823.63;4889141;29;20341;-64
2022/07/19 01:40:19;;;;;;;9.00;5.10;;;;;;;20.90;100.00;101825.47;4882692;29;20642;-63
2022/07/19 01:42:47;;;;;;;6.22;5.18;;;;;;;20.85;100.00;101825.19;4886186;29;20520;-62
2022/07/19 01:45:14;;;;;;;8.90;4.70;;;;;;;20.85;100.00;101817.19;4884041;29;20056;-63
2022/07/19 01:47:41;;;;;;;7.57;5.20;;;;;;;20.83;100.00;101821.09;4875601;29;20063;-62
2022/07/19 01:50:10;;;;;;;7.47;4.53;;;;;;;20.82;100.00;101814.94;4886898;29;20052;-63
2022/07/19 01:52:37;;;;;;;6.80;4.65;;;;;;;20.76;100.00;101810.38;4879665;29;20059;-63
2022/07/19 01:55:06;;;;;;;9.80;5.15;;;;;;;20.71;100.00;101810.91;4889324;29;20490;-62
2022/07/19 01:57:32;;;;;;;7.15;5.22;;;;;;;20.68;100.00;101810.47;4865566;29;20059;-63
2022/07/19 01:59:59;;;;;;;7.60;4.70;;;;;;;20.65;100.00;101810.84;4880628;29;20056;-63
2022/07/19 02:02:25;;;;;;;8.07;4.75;;;;;;;20.63;100.00;101811.03;4885158;29;20260;-64
2022/07/19 02:04:52;;;;;;;8.02;4.68;;;;;;;20.63;100.00;101811.03;4880112;29;20053;-64
2022/07/19 02:07:18;;;;;;;6.18;4.47;;;;;;;20.61;100.00;101809.59;4887247;29;20064;-63
2022/07/19 02:09:44;;;;;;;7.60;4.75;;;;;;;20.59;100.00;101803.59;4880568;29;20056;-63
2022/07/19 02:12:11;;;;;;;9.98;4.82;;;;;;;20.58;100.00;101796.59;4884247;29;20502;-63
2022/07/19 02:14:37;;;;;;;7.75;4.70;;;;;;;20.58;100.00;101805.44;4882700;29;20057;-63
2022/07/19 02:17:04;;;;;;;7.65;4.60;;;;;;;20.53;100.00;101808.66;4879508;29;20569;-64
2022/07/19 02:19:30;;;;;;;7.97;4.75;;;;;;;20.52;100.00;101806.16;4871748;29;20059;-63
2022/07/19 02:21:57;;;;;;;7.60;4.47;;;;;;;20.51;100.00;101804.53;4883626;29;20050;-63
2022/07/19 02:24:24;;;;;;;7.13;5.00;;;;;;;20.50;100.00;101797.53;4887548;29;20335;-64
2022/07/19 02:26:50;;;;;;;6.30;4.70;;;;;;;20.44;100.00;101785.78;4876110;29;20411;-63
2022/07/19 02:29:16;;;;;;;9.20;4.72;;;;;;;20.44;100.00;101785.78;4882243;29;20063;-64
2022/07/19 02:31:44;;;;;;;7.90;4.80;;;;;;;20.45;100.00;101794.63;4888762;29;20059;-62
2022/07/19 02:34:11;;;;;;;7.60;4.80;;;;;;;20.42;100.00;101787.81;4877323;29;20053;-63
2022/07/19 02:36:37;;;;;;;9.00;4.95;;;;;;;20.36;100.00;101783.25;4884373;29;20566;-62
2022/07/19 02:39:03;;;;;;;7.47;4.80;;;;;;;20.34;100.00;101788.75;4880755;29;20053;-63
2022/07/19 02:41:31;;;;;;;6.40;4.47;;;;;;;20.33;100.00;101781.78;4883747;29;21587;-64
2022/07/19 02:43:58;;;;;;;;;;;;;;;20.29;100.00;101782.34;4885020;29;20411;-63
2022/07/19 02:46:24;;;;;;;7.47;4.72;;;;;;;20.25;100.00;101783.75;4881386;29;19927;-62
2022/07/19 02:48:51;;;;;;;8.25;4.50;;;;;;;20.23;100.00;101783.06;4888473;29;20068;-62
2022/07/19 02:51:18;;;;;;;6.33;4.73;;;;;;;20.20;100.00;101783.47;4879245;29;20052;-63
2022/07/19 02:53:45;;;;;;;6.10;4.88;;;;;;;20.20;100.00;101786.13;4888273;29;20501;-63
2022/07/19 02:56:11;;;;;;;8.30;4.32;;;;;;;20.18;100.00;101786.31;4872074;29;20052;-62
2022/07/19 02:58:37;;;;;;;6.68;4.90;;;;;;;20.12;100.00;101774.56;4886534;29;20063;-62
2022/07/19 03:01:04;;;;;;;7.63;4.57;;;;;;;20.14;100.00;101775.19;4888251;29;20052;-63
2022/07/19 03:03:47;;;;;;;11.73;4.85;;;;;;;20.19;100.00;101777.31;4879179;29;20243;-62
2022/07/19 03:06:16;;;;;;;6.50;4.38;;;;;;;20.19;100.00;101768.47;4888095;29;20080;-64
2022/07/19 03:08:44;;;;;;;6.97;4.88;;;;;;;20.13;100.00;101776.22;4869909;29;20052;-63
2022/07/19 03:11:11;;;;;;;10.27;5.07;;;;;;;20.11;100.00;101772.09;4882995;29;20056;-63
2022/07/19 03:13:38;;;;;;;6.30;4.68;;;;;;;20.07;100.00;101771.66;4878346;29;20052;-63
2022/07/19 03:16:05;;;;;;;7.20;4.78;;;;;;;20.05;100.00;101772.81;4887715;29;20541;-63
2022/07/19 03:18:32;;;;;;;8.15;4.75;;;;;;;20.03;100.00;101780.19;4886665;29;20911;-64
2022/07/19 03:20:59;;;;;;;7.82;4.60;;;;;;;19.99;100.00;101778.91;4876674;29;20052;-63
2022/07/19 03:23:28;;;;;;;5.40;4.53;;;;;;;19.93;100.00;101776.00;4881560;29;20053;-64
2022/07/19 03:25:54;;;;;;;;;;;;;;;19.95;100.00;101784.63;4878535;29;20052;-63
2022/07/19 03:28:20;;;;;;;9.60;4.47;;;;;;;19.93;100.00;101773.31;4887215;29;20165;-63
2022/07/19 03:30:47;;;;;;;6.68;4.50;;;;;;;19.89;100.00;101772.00;4882415;29;20072;-63
2022/07/19 03:33:15;;;;;;;8.23;4.40;;;;;;;19.88;100.00;101774.88;4886046;29;20060;-63
2022/07/19 03:35:43;;;;;;;8.82;4.70;;;;;;;19.86;100.00;101774.25;4880973;29;20056;-63
2022/07/19 03:38:10;;;;;;;11.05;5.22;;;;;;;19.81;100.00;101777.44;4860513;29;20532;-63
2022/07/19 03:40:37;;;;;;;6.07;4.15;;;;;;;19.81;100.00;101769.47;4887046;29;20049;-63
2022/07/19 03:43:03;;;;;;;9.85;4.53;;;;;;;19.77;100.00;101773.50;4873945;29;20704;-64
2022/07/19 03:45:30;;;;;;;7.07;4.25;;;;;;;19.77;100.00;101778.00;4887467;29;20057;-63
2022/07/19 03:47:56;;;;;;;6.40;4.10;;;;;;;19.75;100.00;101781.66;4886512;29;20052;-63
2022/07/19 03:50:23;;;;;;;7.97;4.28;;;;;;;19.76;100.00;101779.84;4880181;29;20595;-63
2022/07/19 03:52:49;;;;;;;6.63;4.18;;;;;;;19.73;100.00;101774.88;4886713;29;20390;-63
2022/07/19 03:55:16;;;;;;;8.80;4.20;;;;;;;19.71;100.00;101777.72;4877844;29;20057;-63
2022/07/19 03:57:42;;;;;;;6.47;4.00;;;;;;;19.67;100.00;101776.41;4883764;29;20053;-64
2022/07/19 04:00:09;;;;;;;6.65;3.92;;;;;;;19.68;100.00;101777.22;4873757;29;20143;-63
2022/07/19 04:02:35;;;;;;;9.80;4.38;;;;;;;19.64;100.00;101773.28;4885521;29;20628;-64
2022/07/19 04:05:03;;;;;;;6.38;3.80;;;;;;;19.65;100.00;101777.59;4886338;29;20053;-63
2022/07/19 04:07:29;;;;;;;8.30;3.97;;;;;;;19.62;100.00;101775.28;4878505;29;20419;-63
2022/07/19 04:09:55;;;;;;;7.88;4.50;;;;;;;19.62;100.00;101773.47;4869624;29;20055;-64
2022/07/19 04:12:22;;;;;;;8.38;3.92;;;;;;;19.62;100.00;101773.47;4876386;29;20142;-63
2022/07/19 04:14:48;;;;;;;7.07;4.22;;;;;;;19.61;100.00;101781.66;4885675;29;20067;-63
2022/07/19 04:17:14;;;;;;;10.50;4.70;;;;;;;19.62;100.00;101776.16;4885946;29;20372;-63
2022/07/19 04:19:41;;;;;;;8.55;6.18;;;;;;;19.65;100.00;101777.59;4879691;29;20060;-63
2022/07/19 04:22:07;;;;;;;8.50;5.32;;;;;;;19.68;100.00;101778.06;4861432;29;20490;-63
2022/07/19 04:24:34;;;;;;;12.50;5.05;;;;;;;19.73;100.00;101777.53;4874752;29;20063;-63
2022/07/19 04:27:00;;;;;;;14.68;4.40;;;;;;;19.77;100.00;101775.34;4886488;29;20052;-63
2022/07/19 04:29:27;;;;;;;6.97;4.13;;;;;;;19.86;100.00;101779.56;4882047;29;20053;-63
2022/07/19 04:31:53;;;;;;;8.70;4.78;;;;;;;19.90;100.00;101787.00;4889521;29;20059;-63
2022/07/19 04:34:20;;;;;;;6.88;3.90;;;;;;;19.92;100.00;101784.97;4889458;29;20454;-62
2022/07/19 04:36:46;;;;;;;9.25;4.53;;;;;;;19.96;100.00;101788.09;4865234;29;20457;-64
2022/07/19 04:39:13;;;;;;;8.68;4.70;;;;;;;19.97;100.00;101784.41;4881972;29;20524;-63
2022/07/19 04:41:39;;;;;;;10.25;4.65;;;;;;;20.01;100.00;101787.53;4880691;29;20052;-64
2022/07/19 04:44:06;;;;;;;10.50;4.57;;;;;;;20.02;100.00;101779.34;4890364;29;20052;-63
2022/07/19 04:46:32;;;;;;;8.10;4.90;;;;;;;20.05;100.00;101786.13;4883164;29;20063;-63
2022/07/19 04:48:59;;;;;;;7.20;4.40;;;;;;;20.05;100.00;101784.31;4890437;29;20059;-63
2022/07/19 04:51:25;;;;;;;7.88;4.93;;;;;;;20.07;100.00;101787.63;4887398;29;20486;-63
2022/07/19 04:53:52;;;;;;;11.50;4.82;;;;;;;20.08;100.00;101775.94;4878703;29;20459;-64
2022/07/19 04:56:18;;;;;;;9.98;4.80;;;;;;;20.10;100.00;101779.25;4890305;29;20068;-64
2022/07/19 04:58:45;;;;;;;6.95;4.60;;;;;;;20.18;100.00;101780.16;4885823;29;20523;-64
2022/07/19 05:01:11;;;;;;;9.15;4.97;;;;;;;20.20;100.00;101784.28;4889718;29;20049;-63
2022/07/19 05:03:37;;;;;;;10.45;5.13;;;;;;;20.23;100.00;101777.75;4885212;29;20139;-64
2022/07/19 05:06:04;;;;;;;9.13;5.60;;;;;;;20.27;100.00;101779.88;4885716;29;20045;-63
2022/07/19 05:08:30;;;;;;;8.95;4.90;;;;;;;20.30;100.00;101774.16;4885387;29;20067;-63
2022/07/19 05:10:57;;;;;;;7.53;5.13;;;;;;;20.35;100.00;101779.75;4867059;29;20452;-63
2022/07/19 05:13:23;;;;;;;12.95;5.63;;;;;;;20.39;100.00;101771.41;4888991;29;20060;-64
2022/07/19 05:15:50;;;;;;;10.43;5.50;;;;;;;20.41;100.00;101772.03;4881303;29;20045;-63
2022/07/19 05:18:16;;;;;;;10.15;5.72;;;;;;;20.48;100.00;101783.56;4889574;29;20056;-63
2022/07/19 05:20:43;;;;;;;12.82;5.68;;;;;;;20.52;100.00;101779.50;4884478;29;20060;-64
2022/07/19 05:23:09;;;;;;;9.43;5.00;;;;;;;20.57;100.00;101773.63;4879026;29;20052;-63
2022/07/19 05:25:35;;;;;;;12.85;6.28;;;;;;;20.62;100.00;101774.75;4889543;29;20059;-63
2022/07/19 05:28:02;;;;;;;9.98;5.60;;;;;;;20.65;100.00;101779.69;4881402;29;20532;-63
2022/07/19 05:30:29;;;;;;;9.55;5.13;;;;;;;20.71;100.00;101778.09;4889591;29;20056;-63
2022/07/19 05:32:55;;;;;;;12.32;6.38;;;;;;;20.74;100.00;101775.88;4882044;29;20561;-62
2022/07/19 05:35:22;;;;;;;12.43;6.43;;;;;;;20.82;100.00;101785.59;4885378;29;20148;-63
2022/07/19 05:37:48;;;;;;;12.10;6.28;;;;;;;20.86;100.00;101780.72;4888322;29;20075;-63
2022/07/19 05:40:15;;;;;;;10.43;6.25;;;;;;;20.89;100.00;101783.81;4882282;29;20152;-62
2022/07/19 05:42:41;;;;;;;14.90;7.55;;;;;;;20.94;100.00;101780.56;4889646;29;20063;-63
2022/07/19 05:45:08;;;;;;;14.00;7.07;;;;;;;20.99;100.00;101783.47;4882417;29;20542;-64
2022/07/19 05:47:34;;;;;;;16.42;8.40;;;;;;;21.03;100.00;101775.91;4884830;29;20056;-63
2022/07/19 05:50:01;;;;;;;15.85;8.85;;;;;;;21.06;100.00;101773.69;4879876;29;20057;-63
2022/07/19 05:52:27;;;;;;;12.43;8.32;;;;;;;21.13;100.00;101779.09;4886376;29;20056;-63
2022/07/19 05:55:04;;;;;;;18.15;9.45;;;;;;;21.19;100.00;101778.31;4890090;29;20100;-64
2022/07/19 05:57:30;;;;;;;17.00;8.77;;;;;;;21.24;100.00;101778.56;4883306;29;20063;-63
2022/07/19 05:59:57;;;;;;;19.30;8.20;;;;;;;21.29;100.00;101780.66;4887898;29;20521;-63
2022/07/19 06:02:24;;;;;;;12.80;7.78;;;;;;;21.36;100.00;101775.34;4866662;29;20351;-63
2022/07/19 06:04:51;;;;;;;12.93;7.63;;;;;;;21.41;100.00;101778.28;4878425;29;20058;-63
2022/07/19 06:07:17;;;;;;;14.02;6.95;;;;;;;21.46;100.00;101771.38;4889121;29;20052;-64
2022/07/19 06:09:43;;;;;;;14.77;8.20;;;;;;;21.53;100.00;101774.88;4881007;29;20061;-63
2022/07/19 06:12:10;;;;;;;10.93;7.53;;;;;;;21.59;100.00;101773.28;4881614;29;20063;-63
2022/07/19 06:14:36;;;;;;;16.60;8.35;;;;;;;21.65;100.00;101767.16;4883420;29;20049;-64
2022/07/19 06:17:03;;;;;;;13.52;8.07;;;;;;;21.73;100.00;101768.84;4889658;29;20255;-63
2022/07/19 06:19:29;;;;;;;12.65;7.90;;;;;;;21.79;100.00;101761.88;4882538;29;20120;-63
2022/07/19 06:21:56;;;;;;;16.02;7.60;;;;;;;21.85;100.00;101759.22;4889060;29;20083;-62
2022/07/19 06:24:22;;;;;;;12.80;7.10;;;;;;;21.92;100.00;101757.44;4884865;29;20056;-63
2022/07/19 06:26:49;;;;;;;13.15;7.57;;;;;;;21.98;100.00;101763.00;4876877;29;20056;-63
2022/07/19 06:29:15;;;;;;;11.68;6.95;;;;;;;22.03;100.00;101761.38;4880641;29;20901;-63
2022/07/19 06:31:41;;;;;;;12.20;7.82;;;;;;;22.06;100.00;101766.31;4879686;29;20056;-63
2022/07/19 06:34:08;;;;;;;14.30;7.53;;;;;;;22.16;100.00;101768.63;4887287;29;20052;-62
2022/07/19 06:36:39;;;;;;;11.40;7.35;;;;;;;22.21;100.00;101770.66;4885634;29;20053;-63
2022/07/19 06:39:05;;;;;;;12.23;8.52;;;;;;;22.26;100.00;101773.59;4881625;29;20060;-63
2022/07/19 06:41:32;;;;;;;13.02;9.18;;;;;;;22.30;99.96;101774.84;4883985;29;20060;-62
2022/07/19 06:43:58;;;;;;;15.30;9.98;;;;;;;22.38;99.78;101766.66;4881452;29;20049;-62
2022/07/19 06:46:24;;;;;;;16.83;8.48;;;;;;;;;;4888668;29;20429;-63
2022/07/19 06:48:51;;;;;;;15.13;8.43;;;;;;;22.50;100.00;101767.72;4881691;29;20341;-63
2022/07/19 06:51:17;;;;;;;12.40;8.60;;;;;;;22.54;100.00;101762.78;4889051;29;20053;-63
2022/07/19 06:53:44;;;;;;;12.85;8.45;;;;;;;22.63;100.00;101761.56;4881589;29;20159;-63
2022/07/19 06:56:10;;;;;;;12.77;7.88;;;;;;;22.71;100.00;101761.34;4879935;29;20528;-63
2022/07/19 06:58:37;;;;;;;16.90;9.18;;;;;;;22.76;100.00;101763.44;4889297;29;20059;-63
2022/07/19 07:01:07;;;;;;;16.67;8.35;;;;;;;22.84;100.00;101763.22;4875340;29;20534;-63
2022/07/19 07:03:36;;;;;;;13.30;8.68;;;;;;;22.88;100.00;101763.66;4884073;29;20093;-63
2022/07/19 07:06:03;;;;;;;;;;;;;;;22.97;100.00;101762.41;4878087;29;20056;-63
2022/07/19 07:08:29;;;;;;;14.50;8.60;;;;;;;23.03;100.00;101756.28;4882567;29;19933;-63
2022/07/19 07:10:56;;;;;;;17.35;9.15;;;;;;;23.09;99.80;101762.63;4887415;29;20425;-64
2022/07/19 07:13:22;;;;;;;13.32;9.15;;;;;;;23.16;100.00;101771.47;4860761;29;20135;-63
2022/07/19 07:15:49;;;;;;;15.60;9.15;;;;;;;23.21;100.00;101776.22;4871730;29;20136;-63
2022/07/19 07:18:15;;;;;;;15.60;8.35;;;;;;;23.26;100.00;101769.19;4879873;29;20433;-64
2022/07/19 07:20:41;;;;;;;14.77;8.18;;;;;;;23.34;100.00;101770.84;4883684;29;20075;-63
2022/07/19 07:23:08;;;;;;;16.20;8.00;;;;;;;23.46;98.96;101773.69;4874068;29;20071;-64
2022/07/19 07:25:34;;;;;;;16.80;7.80;;;;;;;23.55;97.64;101763.59;4884664;29;20056;-63
2022/07/19 07:28:01;;;;;;;14.55;7.38;;;;;;;23.67;97.34;101764.59;4881284;29;20049;-64
2022/07/19 07:30:27;;;;;;;16.55;6.53;;;;;;;23.75;98.34;101766.22;4881482;29;20430;-64
2022/07/19 07:32:54;;;;;;;16.63;7.07;;;;;;;23.84;94.42;101762.31;4888908;29;20458;-64
2022/07/19 07:35:21;;;;;;;17.20;6.20;;;;;;;23.91;95.53;101768.44;4874875;29;20423;-64
2022/07/19 07:37:47;;;;;;;11.02;6.10;;;;;;;24.00;93.79;101753.78;4882534;29;20056;-63
2022/07/19 07:40:13;;;;;;;14.75;5.85;;;;;;;24.07;92.59;101751.06;4880914;29;20068;-64
2022/07/19 07:42:40;;;;;;;9.85;5.68;;;;;;;24.20;93.54;101760.91;4887536;29;20144;-63
2022/07/19 07:45:09;;;;;;;10.27;5.10;;;;;;;24.26;94.40;101766.22;4886706;29;20064;-63
2022/07/19 07:47:36;;;;;;;11.77;5.00;;;;;;;24.35;92.41;101763.31;4879263;29;20131;-63
2022/07/19 07:50:05;;;;;;;10.70;5.30;;;;;;;24.43;92.01;101769.22;4879390;29;20184;-64
2022/07/19 07:52:31;;;;;;;11.85;5.00;;;;;;;24.52;92.58;101758.25;4881168;29;20077;-64
2022/07/19 07:54:58;;;;;;;12.30;5.13;;;;;;;24.57;92.93;101753.91;4887752;29;20728;-64
2022/07/19 07:57:44;;;;;;;8.90;4.43;;;;;;;24.69;91.03;101755.88;4881635;29;20117;-64
2022/07/19 08:00:12;;;;;;;11.77;4.30;;;;;;;24.78;90.51;101749.22;4887882;29;20079;-64
2022/07/19 08:02:41;;;;;;;10.80;4.13;;;;;;;24.88;91.47;101754.09;4886657;29;20044;-64
2022/07/19 08:05:08;;;;;;;7.35;3.90;;;;;;;24.97;88.55;101742.03;4880733;29;20056;-64
2022/07/19 08:07:36;;;;;;;11.68;4.50;;;;;;;25.06;90.38;101738.03;4888283;29;20059;-64
2022/07/19 08:10:08;;;;;;;11.82;4.00;;;;;;;25.14;89.96;101736.94;4883062;29;20048;-64
2022/07/19 08:12:34;;;;;;;11.73;4.55;;;;;;;25.33;87.43;101740.50;4891064;29;20153;-64
2022/07/19 08:15:01;;;;;;;8.52;4.30;;;;;;;25.44;85.81;101743.25;4881756;29;20044;-63
2022/07/19 08:17:28;;;;;;;10.05;3.83;;;;;;;25.57;86.22;101731.53;4880935;29;20216;-64
2022/07/19 08:19:54;;;;;;;10.13;4.15;;;;;;;25.67;85.92;101733.69;4886903;29;20510;-64
2022/07/19 08:22:21;;;;;;;13.95;3.70;;;;;;;25.75;83.83;101733.38;4882479;29;20072;-64
2022/07/19 08:24:47;;;;;;;7.90;4.03;;;;;;;25.84;82.04;101733.91;4891460;29;20048;-63
2022/07/19 08:27:13;;;;;;;11.52;3.65;;;;;;;25.92;81.84;101733.63;4883884;29;20067;-64
2022/07/19 08:29:40;;;;;;;7.50;3.88;;;;;;;26.02;83.28;101733.06;4887315;29;21173;-64
2022/07/19 08:32:06;;;;;;;6.30;3.47;;;;;;;26.16;82.57;101731.84;4882313;29;20513;-64
2022/07/19 08:34:33;;;;;;;12.10;3.90;;;;;;;26.33;81.99;101725.81;4888020;29;20057;-63
2022/07/19 08:37:00;;;;;;;8.80;3.78;;;;;;;26.61;81.88;101738.66;4890789;29;20057;-64
2022/07/19 08:39:30;;;;;;;8.70;3.13;;;;;;;26.97;78.41;101734.97;4883190;29;20732;-63
2022/07/19 08:41:56;;;;;;;9.15;3.80;;;;;;;27.35;81.00;101722.06;4888361;29;20057;-63
2022/07/19 08:44:23;;;;;;;7.65;3.53;;;;;;;27.78;76.92;101735.09;4874917;29;20775;-64
2022/07/19 08:46:50;;;;;;;11.85;3.53;;;;;;;28.20;76.17;101736.69;4884930;29;20052;-63
2022/07/19 08:49:17;;;;;;;9.88;3.55;;;;;;;28.65;73.84;101732.34;4884003;29;20072;-63
2022/07/19 08:51:46;;;;;;;9.30;3.60;;;;;;;29.08;75.38;101731.66;4887590;29;20060;-65
2022/07/19 08:54:13;;;;;;;12.93;4.00;;;;;;;29.48;71.82;101724.34;4889359;29;20053;-63
2022/07/19 08:59:24;;;;;;;5.80;3.17;;;;;;;30.29;63.75;101716.31;4874402;29;20057;-63
2022/07/19 09:01:51;;;;;;;9.95;3.15;;;;;;;30.63;65.24;101720.69;4875574;29;20053;-63
2022/07/19 09:04:20;;;;;;;11.53;3.20;;;;;;;30.96;63.92;101722.28;4871816;29;20426;-63
2022/07/19 09:06:49;;;;;;;7.57;3.30;;;;;;;31.22;63.08;101720.50;4879643;29;20325;-63
2022/07/19 09:09:18;;;;;;;8.70;3.28;;;;;;;31.44;61.25;101714.94;4883089;29;20501;-63
2022/07/19 09:11:51;;;;;;;10.30;3.70;;;;;;;31.70;61.37;101717.75;4873372;29;20076;-63
2022/07/19 09:14:25;;;;;;;8.57;3.28;;;;;;;32.01;60.86;101717.84;4874594;29;20060;-63
2022/07/19 09:17:03;;;;;;;6.32;3.00;;;;;;;32.28;60.19;101709.44;4882864;29;20057;-64
2022/07/19 09:19:40;;;;;;;8.40;3.25;;;;;;;32.55;58.87;101709.16;4882206;29;20101;-63
2022/07/19 09:22:12;;;;;;;6.68;3.20;;;;;;;32.79;56.59;101706.69;4878824;29;20139;-64
2022/07/19 09:24:44;;;;;;;8.90;3.28;;;;;;;32.97;56.15;101697.16;4880058;29;20079;-63
2022/07/19 09:27:17;;;;;;;6.38;3.03;;;;;;;33.27;56.01;101701.69;4886267;29;20048;-63
2022/07/19 09:29:52;;;;;;;5.32;2.70;;;;;;;33.46;56.72;101704.59;4874558;29;20060;-63
2022/07/19 09:32:21;;;;;;;6.28;3.25;;;;;;;33.67;55.67;101696.34;4888801;29;20420;-64
2022/07/19 09:34:58;;;;;;;14.85;3.28;;;;;;;33.90;56.71;101702.22;4889233;29;20079;-64
2022/07/19 09:37:27;;;;;;;;;;;;;;;34.05;54.88;101699.38;4849254;29;20055;-64
2022/07/19 09:39:56;;;;;;;9.88;2.80;;;;;;;34.13;54.75;101697.94;4888519;29;19927;-64
2022/07/19 09:42:33;;;;;;;11.13;3.38;;;;;;;34.26;54.46;101700.88;4878121;29;20048;-64
2022/07/19 09:45:02;;;;;;;8.98;3.00;;;;;;;34.51;54.76;101692.75;4888308;29;20048;-64
2022/07/19 09:47:40;;;;;;;8.27;3.60;;;;;;;34.56;52.44;101685.34;4880738;29;20498;-63
2022/07/19 09:50:16;;;;;;;6.57;3.08;;;;;;;34.67;52.66;101689.59;4887742;29;20112;-63
2022/07/19 09:52:47;;;;;;;11.48;3.17;;;;;;;34.92;53.82;101682.25;4887092;29;20049;-63
2022/07/19 09:55:16;;;;;;;10.07;3.47;;;;;;;35.09;54.14;101692.69;4875561;29;20366;-63
2022/07/19 09:57:45;;;;;;;6.70;3.42;;;;;;;35.21;53.01;101681.38;4886717;29;20060;-63
2022/07/19 10:00:14;;;;;;;7.88;3.33;;;;;;;35.25;52.82;101675.03;4879841;29;20506;-64
2022/07/19 10:02:43;;;;;;;9.25;3.30;;;;;;;35.45;52.32;101675.88;4886486;29;20052;-64
2022/07/19 10:05:11;;;;;;;11.25;3.20;;;;;;;35.60;51.46;101677.56;4875682;29;20052;-63
2022/07/19 10:07:39;;;;;;;10.48;3.20;;;;;;;35.78;52.22;101678.69;4884528;29;20064;-63
2022/07/19 10:10:10;;;;;;;9.88;3.10;;;;;;;35.82;50.93;101671.53;4882004;29;20062;-63
2022/07/19 10:12:38;;;;;;;7.13;2.88;;;;;;;35.94;51.74;101674.59;4881250;29;20080;-63
2022/07/19 10:15:09;;;;;;;15.95;3.22;;;;;;;36.08;50.56;101663.72;4886974;29;20059;-64
2022/07/19 10:17:47;;;;;;;13.27;3.40;;;;;;;36.19;49.99;101667.94;4883779;29;20057;-64
2022/07/19 10:20:19;;;;;;;10.10;3.28;;;;;;;36.19;50.57;101665.22;4883870;29;20426;-64
2022/07/19 10:22:46;;;;;;;12.15;3.58;;;;;;;36.16;50.25;101660.34;4871690;29;20052;-64
2022/07/19 10:25:14;;;;;;;6.73;2.80;;;;;;;36.33;47.91;101654.31;4890582;29;20087;-63
2022/07/19 10:27:57;;;;;;;6.60;3.00;;;;;;;36.43;48.39;101656.03;4881522;29;20079;-63
2022/07/19 10:30:39;;;;;;;8.90;3.00;;;;;;;36.53;49.21;101655.03;4885736;29;20056;-63
2022/07/19 10:33:27;;;;;;;9.43;3.45;;;;;;;36.71;48.01;101650.63;4886844;29;20116;-64
2022/07/19 10:35:53;;;;;;;10.18;3.53;;;;;;;36.87;48.58;101645.66;4880126;29;20052;-64
2022/07/19 10:38:20;;;;;;;9.15;3.28;;;;;;;36.96;48.00;101652.81;4885303;29;20087;-63
2022/07/19 10:40:56;;;;;;;11.47;3.40;;;;;;;37.15;48.94;101636.31;4861782;29;20048;-63
2022/07/19 10:43:24;;;;;;;5.93;3.10;;;;;;;37.33;48.77;101640.03;4886638;29;20057;-64
2022/07/19 10:45:57;;;;;;;8.23;3.20;;;;;;;37.32;47.38;101638.44;4882232;29;20063;-65
2022/07/19 10:48:47;;;;;;;10.57;3.00;;;;;;;37.52;46.69;101634.41;4880095;29;20059;-64
2022/07/19 10:51:30;;;;;;;6.63;3.10;;;;;;;37.61;45.09;101626.28;4876893;29;20056;-63
2022/07/19 10:54:06;;;;;;;7.13;2.97;;;;;;;37.61;44.29;101629.00;4887174;29;20063;-65
2022/07/19 10:56:41;;;;;;;4.75;2.88;;;;;;;37.87;46.18;101631.09;4888209;29;20068;-64
2022/07/19 10:59:40;;;;;;;8.98;3.05;;;;;;;37.99;44.77;101626.69;4886827;29;20433;-63
2022/07/19 11:02:20;;;;;;;5.20;2.63;;;;;;;37.87;43.19;101623.72;4885061;29;20510;-65
2022/07/19 11:05:07;;;;;;;6.18;2.50;;;;;;;38.13;43.51;101621.16;4882291;29;20520;-64
2022/07/19 11:07:33;;;;;;;8.23;2.83;;;;;;;38.27;44.89;101621.06;4888941;29;20056;-63
2022/07/19 11:10:02;;;;;;;5.40;2.85;;;;;;;38.32;45.29;101620.09;4881332;29;20520;-64
2022/07/19 11:12:36;;;;;;;7.00;2.70;;;;;;;38.55;44.73;101621.66;4888176;29;20151;-64
2022/07/19 11:15:06;;;;;;;6.43;2.95;;;;;;;38.64;43.77;101618.16;4878109;29;20083;-64
2022/07/19 11:17:57;;;;;;;4.13;2.38;;;;;;;38.72;43.17;101615.44;4882098;29;20467;-61
2022/07/19 11:20:29;;;;;;;7.82;2.42;;;;;;;38.85;44.44;101612.88;4871661;29;20056;-62
2022/07/19 11:22:57;;;;;;;6.78;2.47;;;;;;;38.95;44.45;101604.31;4887518;29;20061;-62
2022/07/19 11:25:30;;;;;;;8.98;3.00;;;;;;;39.08;44.27;101608.09;4883270;29;20080;-62
2022/07/19 11:27:58;;;;;;;7.55;2.75;;;;;;;39.10;43.17;101597.59;4886841;29;20135;-62